Time;durP1;ratioP1;P1;durP2;ratioP2;P2;SDS_P1;SDS_P2;PMS_P1;PMS_P2;Temp;Humidity;BMP_temperature;BMP_pressure;BME280_temperature;BME280_humidity;BME280_pressure;Samples;Min_cycle;Max_cycle;Signal;HPM_P1;HPM_P2
2022/06/25 10:43:37;;;;;;;;;;;;;;;;;;5068763;27;19921;-58
2022/06/25 11:23:09;;;;;;;;;;;;;;;;;;4730648;22;8223738;-78
2022/06/25 11:29:25;;;;;;;5.68;2.45;;;;;;;;;;4576399;27;9946159;-58
2022/06/25 11:31:52;;;;;;;5.55;2.30;;;;;;;;;;4983202;28;20212;-58
2022/06/25 11:34:19;;;;;;;5.03;2.35;;;;;;;;;;5037189;28;20119;-58
2022/06/25 11:36:45;;;;;;;;;;;;;;;;;;5035943;28;20022;-58
2022/06/25 11:39:15;;;;;;;6.72;2.63;;;;;;;;;;5032414;28;20015;-58
2022/06/25 11:41:41;;;;;;;6.28;2.70;;;;;;;;;;5035167;28;20034;-58
2022/06/25 11:44:08;;;;;;;7.45;3.13;;;;;;;;;;5036161;28;20021;-58
2022/06/25 11:46:34;;;;;;;6.47;2.65;;;;;;;;;;5037145;28;20025;-58
2022/06/25 11:49:03;;;;;;;5.68;2.67;;;;;;;;;;5037013;28;20025;-58
2022/06/25 11:51:29;;;;;;;3.70;2.30;;;;;;;;;;5031164;28;20370;-58
2022/06/25 11:53:55;;;;;;;2.83;2.40;;;;;;;;;;5008017;28;20050;-58
2022/06/25 11:56:21;;;;;;;3.45;2.90;;;;;;;;;;4986235;28;74263;-58
2022/06/25 12:00:34;;;;;;;3.33;2.53;;;;;;;;;;4992449;28;20152;-58
2022/06/25 12:03:02;;;;;;;4.68;2.83;;;;;;;;;;4960183;28;20046;-58
2022/06/25 12:05:30;;;;;;;6.28;2.75;;;;;;;;;;4991317;28;20077;-58
2022/06/25 12:07:57;;;;;;;6.03;2.45;;;;;;;;;;4992236;28;20064;-58
2022/06/25 12:10:25;;;;;;;5.93;2.83;;;;;;;;;;4965991;28;20078;-58
2022/06/25 12:12:52;;;;;;;5.70;2.60;;;;;;;;;;4991416;28;20129;-58
2022/06/25 12:15:20;;;;;;;6.90;2.67;;;;;;;;;;4994995;28;20074;-58
2022/06/25 12:17:47;;;;;;;6.82;2.70;;;;;;;;;;4994889;28;20175;-58
2022/06/25 12:20:15;;;;;;;4.82;2.90;;;;;;;;;;4991966;28;20081;-58
2022/06/25 12:22:52;;;;;;;6.05;3.00;;;;;;;;;;4993631;28;20088;-57
2022/06/25 12:25:24;;;;;;;3.88;2.85;;;;;;;;;;4993435;28;20062;-57
2022/06/25 12:27:52;;;;;;;3.78;2.90;;;;;;;;;;4993426;28;20085;-57
2022/06/25 12:30:24;;;;;;;5.78;2.95;;;;;;;;;;4988726;28;20069;-58
2022/06/25 12:32:53;;;;;;;4.13;2.88;;;;;;;;;;4991549;28;20062;-57
2022/06/25 12:35:24;;;;;;;6.75;2.80;;;;;;;;;;4989442;28;20050;-58
2022/06/25 12:38:01;;;;;;;8.20;3.00;;;;;;;;;;4992860;28;20128;-57
2022/06/25 12:40:30;;;;;;;5.57;3.20;;;;;;;;;;4989867;28;20077;-58
2022/06/25 12:42:58;;;;;;;8.80;3.22;;;;;;;;;;4992158;28;20050;-58
2022/06/25 12:45:26;;;;;;;6.78;2.97;;;;;;;;;;4987663;28;20058;-58
2022/06/25 12:47:53;;;;;;;7.38;3.30;;;;;;;;;;4992670;28;20050;-58
2022/06/25 12:50:22;;;;;;;6.35;3.40;;;;;;;;;;4988400;28;20465;-58
2022/06/25 12:52:50;;;;;;;6.35;3.25;;;;;;;;;;4991506;28;20058;-58
2022/06/25 12:55:18;;;;;;;5.35;3.75;;;;;;;;;;4988431;28;20569;-58
2022/06/25 12:57:53;;;;;;;4.80;3.10;;;;;;;;;;4992726;28;20046;-58
2022/06/25 13:00:21;;;;;;;9.30;3.65;;;;;;;;;;4990192;28;20173;-58
2022/06/25 13:02:49;;;;;;;4.72;3.28;;;;;;;;;;4993088;28;20463;-58
2022/06/25 13:05:17;;;;;;;8.68;3.03;;;;;;;;;;4992048;28;20563;-58
2022/06/25 13:07:45;;;;;;;9.23;3.67;;;;;;;;;;4994220;28;20074;-58
2022/06/25 13:10:12;;;;;;;6.22;3.50;;;;;;;;;;4988264;28;20136;-58
2022/06/25 13:12:40;;;;;;;7.05;3.70;;;;;;;;;;4978251;28;20053;-58
2022/06/25 13:15:08;;;;;;;9.15;4.00;;;;;;;;;;4979839;28;20141;-58
2022/06/25 13:17:35;;;;;;;7.30;3.70;;;;;;;;;;4980545;28;20078;-58
2022/06/25 13:20:04;;;;;;;5.03;3.40;;;;;;;;;;4976877;28;20416;-58
2022/06/25 13:22:31;;;;;;;5.72;3.58;;;;;;;;;;4979808;28;20058;-58
2022/06/25 13:24:59;;;;;;;5.68;3.75;;;;;;;;;;4980159;28;20074;-58
2022/06/25 13:27:26;;;;;;;7.28;3.60;;;;;;;;;;4978718;28;20065;-58
2022/06/25 13:29:54;;;;;;;9.27;3.50;;;;;;;;;;4980447;28;20069;-58
2022/06/25 13:32:21;;;;;;;9.18;3.60;;;;;;;;;;4980171;28;20072;-58
2022/06/25 13:34:48;;;;;;;10.52;3.78;;;;;;;;;;4975396;28;20662;-58
2022/06/25 13:37:20;;;;;;;8.93;3.60;;;;;;;;;;4975465;28;20047;-58
2022/06/25 13:39:47;;;;;;;6.22;3.50;;;;;;;;;;4994452;28;20069;-58
2022/06/25 13:42:14;;;;;;;6.85;3.55;;;;;;;;;;4980576;28;20120;-58
2022/06/25 13:44:41;;;;;;;8.10;4.05;;;;;;;;;;4981695;28;20078;-59
2022/06/25 13:47:09;;;;;;;3.92;3.40;;;;;;;;;;4977655;28;20093;-58
2022/06/25 13:49:36;;;;;;;7.68;3.80;;;;;;;;;;4979401;28;20057;-58
2022/06/25 13:52:04;;;;;;;3.75;3.22;;;;;;;;;;4979511;28;20077;-59
2022/06/25 13:54:32;;;;;;;9.85;3.60;;;;;;;;;;4978084;28;20051;-58
2022/06/25 13:56:59;;;;;;;4.95;3.22;;;;;;;;;;4976410;28;20050;-58
2022/06/25 13:59:27;;;;;;;4.80;3.65;;;;;;;;;;4978260;28;20148;-58
2022/06/25 14:01:54;;;;;;;6.80;3.42;;;;;;;;;;4978941;28;20417;-58
2022/06/25 14:04:21;;;;;;;7.85;3.40;;;;;;;;;;4979699;28;20042;-58
2022/06/25 14:06:49;;;;;;;11.73;3.42;;;;;;;;;;4979001;28;20046;-59
2022/06/25 14:09:16;;;;;;;5.72;3.60;;;;;;;;;;4979258;28;20169;-59
2022/06/25 14:11:44;;;;;;;9.20;3.42;;;;;;;;;;4979442;28;20418;-59
2022/06/25 14:14:11;;;;;;;3.78;3.35;;;;;;;;;;4977456;28;20484;-58
2022/06/25 14:16:40;;;;;;;5.75;3.47;;;;;;;;;;4973692;28;20049;-59
2022/06/25 14:19:07;;;;;;;13.30;3.85;;;;;;;;;;4976653;28;20054;-59
2022/06/25 14:21:35;;;;;;;7.65;3.38;;;;;;;;;;4973388;28;20054;-58
2022/06/25 14:24:02;;;;;;;5.35;3.70;;;;;;;;;;4977875;28;20074;-59
2022/06/25 14:26:30;;;;;;;10.60;3.88;;;;;;;;;;4977190;28;20053;-59
2022/06/25 14:28:57;;;;;;;9.10;3.85;;;;;;;;;;4976676;28;20234;-58
2022/06/25 14:31:25;;;;;;;4.80;3.70;;;;;;;;;;4978377;28;20054;-58
2022/06/25 14:33:52;;;;;;;6.45;3.30;;;;;;;;;;4977517;28;20046;-58
2022/06/25 14:44:44;;;;;;;7.53;3.83;;;;;;;;;;4972637;28;20126;-58
2022/06/25 14:47:12;;;;;;;6.72;4.22;;;;;;;;;;4976263;28;21862;-58
2022/06/25 14:49:39;;;;;;;6.65;3.70;;;;;;;;;;4976483;28;20116;-58
2022/06/25 14:52:06;;;;;;;10.80;3.92;;;;;;;;;;4978008;28;20108;-58
2022/06/25 14:54:34;;;;;;;9.95;3.92;;;;;;;;;;4973399;28;20054;-57
2022/06/25 14:57:01;;;;;;;7.65;4.00;;;;;;;;;;4978595;28;20074;-59
2022/06/25 14:59:28;;;;;;;;;;;;;;;;;;4978197;28;20074;-59
2022/06/25 15:01:56;;;;;;;8.98;3.97;;;;;;;;;;4978072;28;19930;-56
2022/06/25 15:04:23;;;;;;;;;;;;;;;;;;4980256;28;20098;-56
2022/06/25 15:06:50;;;;;;;10.60;5.20;;;;;;;;;;4977553;28;19926;-56
2022/06/25 15:09:17;;;;;;;10.07;4.95;;;;;;;;;;4977520;28;20085;-56
2022/06/25 15:11:45;;;;;;;9.35;4.88;;;;;;;;;;4974078;28;20066;-56
2022/06/25 15:14:12;;;;;;;;;;;;;;;;;;4979929;28;20042;-56
2022/06/25 15:16:39;;;;;;;6.32;4.35;;;;;;;;;;4979582;28;19922;-57
2022/06/25 15:19:07;;;;;;;6.65;4.05;;;;;;;;;;4976796;28;20106;-56
2022/06/25 15:21:34;;;;;;;12.73;4.38;;;;;;;;;;4977423;28;20054;-55
2022/06/25 15:24:01;;;;;;;5.13;4.00;;;;;;;;;;4977103;28;20081;-55
2022/06/25 15:26:28;;;;;;;;;;;;;;;;;;4977686;28;20129;-56
2022/06/25 15:28:56;;;;;;;4.40;3.80;;;;;;;;;;4977999;28;20494;-56
2022/06/25 15:31:23;;;;;;;;;;;;;;;;;;4977735;28;20108;-55
2022/06/25 15:33:50;;;;;;;8.05;4.15;;;;;;;;;;4979762;28;19965;-53
2022/06/25 15:36:17;;;;;;;;;;;;;;;;;;4976977;28;20054;-56
2022/06/25 15:38:45;;;;;;;6.50;4.13;;;;;;;;;;4975997;28;19976;-53
2022/06/25 15:41:12;;;;;;;8.30;4.72;;;;;;;;;;4976872;28;20073;-55
2022/06/25 15:43:40;;;;;;;7.85;4.32;;;;;;;;;;4977911;28;20106;-53
2022/06/25 15:46:07;;;;;;;11.00;4.57;;;;;;;;;;4978701;28;20070;-55
2022/06/25 15:48:34;;;;;;;;;;;;;;;;;;4975849;28;20440;-56
2022/06/25 15:51:02;;;;;;;9.02;4.70;;;;;;;;;;4978409;28;19965;-53
2022/06/25 15:53:29;;;;;;;7.47;4.72;;;;;;;;;;4974868;28;20078;-56
2022/06/25 15:56:00;;;;;;;7.72;4.53;;;;;;;;;;4978012;28;20058;-53
2022/06/25 15:59:27;;;;;;;;;;;;;;;;;;4972919;28;20150;-52
2022/06/25 16:01:15;;;;;;;9.15;4.35;;;;;;;;;;4972520;28;19960;-53
2022/06/25 16:03:42;;;;;;;10.98;4.68;;;;;;;;;;4977817;28;20054;-55
2022/06/25 16:06:09;;;;;;;;;;;;;;;;;;4979589;28;20065;-55
2022/06/25 16:08:37;;;;;;;8.05;4.45;;;;;;;;;;4972567;28;19922;-53
2022/06/25 16:11:31;;;;;;;7.40;4.82;;;;;;;;;;4976108;28;20054;-55
2022/06/25 16:13:52;;;;;;;9.25;4.60;;;;;;;;;;4977364;28;20051;-54
2022/06/25 16:16:19;;;;;;;6.75;4.57;;;;;;;;;;4974952;28;20054;-56
2022/06/25 16:18:46;;;;;;;;;;;;;;;;;;4975846;28;20160;-56
2022/06/25 16:21:14;;;;;;;9.93;4.55;;;;;;;;;;4974714;28;20015;-56
2022/06/25 16:23:41;;;;;;;7.80;4.80;;;;;;;;;;4975649;28;20085;-55
2022/06/25 16:26:08;;;;;;;9.32;4.82;;;;;;;;;;4974687;28;20236;-55
2022/06/25 16:28:35;;;;;;;;;;;;;;;;;;4974044;28;20159;-54
2022/06/25 16:31:06;;;;;;;9.10;4.68;;;;;;;;;;4972193;28;20013;-53
2022/06/25 16:33:34;;;;;;;6.60;4.60;;;;;;;;;;4972073;28;20600;-56
2022/06/25 16:36:01;;;;;;;7.85;4.30;;;;;;;;;;4975349;28;20081;-53
2022/06/25 16:38:29;;;;;;;5.03;4.28;;;;;;;;;;4973534;28;20101;-54
2022/06/25 16:40:58;;;;;;;9.90;5.13;;;;;;;;;;4974497;28;20695;-54
2022/06/25 16:44:00;;;;;;;9.73;5.40;;;;;;;;;;4974103;28;20081;-53
2022/06/25 16:46:12;;;;;;;7.13;4.50;;;;;;;;;;4972836;28;20078;-56
2022/06/25 16:48:40;;;;;;;11.40;4.78;;;;;;;;;;4977267;28;20081;-53
2022/06/25 16:51:07;;;;;;;7.35;4.13;;;;;;;;;;4981132;28;20074;-54
2022/06/25 16:53:35;;;;;;;8.15;5.18;;;;;;;;;;4976255;28;20125;-55
2022/06/25 16:56:03;;;;;;;6.63;4.70;;;;;;;;;;4975407;28;20050;-52
2022/06/25 16:58:39;;;;;;;7.25;4.85;;;;;;;;;;4979615;28;20042;-55
2022/06/25 17:01:07;;;;;;;7.53;4.15;;;;;;;;;;4974249;28;20090;-55
2022/06/25 17:03:35;;;;;;;9.00;5.20;;;;;;;;;;4976150;28;20076;-53
2022/06/25 17:06:03;;;;;;;10.35;4.70;;;;;;;;;;4975385;28;20072;-53
2022/06/25 17:08:30;;;;;;;9.30;4.70;;;;;;;;;;4974905;28;20038;-54
2022/06/25 17:10:58;;;;;;;9.95;5.40;;;;;;;;;;4975911;28;20521;-55
2022/06/25 17:13:25;;;;;;;8.30;5.00;;;;;;;;;;4974032;28;20086;-56
2022/06/25 17:15:52;;;;;;;10.60;4.63;;;;;;;;;;4975779;28;20761;-53
2022/06/25 17:18:20;;;;;;;8.90;4.32;;;;;;;;;;4979531;28;20053;-55
2022/06/25 17:20:47;;;;;;;;;;;;;;;;;;4978837;28;20081;-55
2022/06/25 17:23:14;;;;;;;8.52;4.68;;;;;;;;;;4974872;28;20017;-55
2022/06/25 17:25:42;;;;;;;12.73;4.93;;;;;;;;;;4975782;28;20090;-54
2022/06/25 17:28:09;;;;;;;9.38;4.50;;;;;;;;;;4975643;28;20046;-53
2022/06/25 17:30:36;;;;;;;;;;;;;;;;;;4976549;28;20141;-54
2022/06/25 17:33:04;;;;;;;9.00;5.03;;;;;;;;;;4976733;28;19980;-55
2022/06/25 17:35:31;;;;;;;;;;;;;;;;;;4974026;28;20132;-52
2022/06/25 17:38:00;;;;;;;11.45;4.95;;;;;;;;;;4977738;28;19961;-54
2022/06/25 17:40:31;;;;;;;9.63;5.20;;;;;;;;;;4974422;28;20534;-55
2022/06/25 17:42:58;;;;;;;6.38;4.28;;;;;;;;;;4977082;28;20106;-50
2022/06/25 17:45:26;;;;;;;8.43;4.65;;;;;;;;;;4975039;28;20297;-55
2022/06/25 17:47:53;;;;;;;9.60;4.78;;;;;;;;;;4975543;28;20058;-52
2022/06/25 17:50:20;;;;;;;;;;;;;;;;;;4976630;28;20078;-54
2022/06/25 17:52:47;;;;;;;11.55;5.40;;;;;;;;;;4975091;28;19996;-52
2022/06/25 17:55:19;;;;;;;8.32;5.07;;;;;;;;;;4976193;28;20413;-53
2022/06/25 17:57:47;;;;;;;;;;;;;;;;;;4975453;28;20155;-53
2022/06/25 18:00:16;;;;;;;9.77;4.75;;;;;;;;;;4976261;28;20036;-53
2022/06/25 18:02:45;;;;;;;11.82;4.88;;;;;;;;;;4975494;28;20506;-50
2022/06/25 18:05:13;;;;;;;11.90;5.47;;;;;;;;;;4974536;28;20545;-54
2022/06/25 18:07:41;;;;;;;11.00;4.90;;;;;;;;;;4974272;28;20130;-54
2022/06/25 18:10:09;;;;;;;7.18;4.30;;;;;;;;;;4973238;28;20469;-54
2022/06/25 18:12:38;;;;;;;6.70;4.22;;;;;;;;;;4975895;28;20077;-52
2022/06/25 18:15:06;;;;;;;7.72;4.53;;;;;;;;;;4977337;28;20161;-53
2022/06/25 18:17:34;;;;;;;11.38;5.13;;;;;;;;;;4973877;28;20163;-48
2022/06/25 18:20:02;;;;;;;8.65;4.75;;;;;;;;;;4971779;28;20058;-51
2022/06/25 18:22:29;;;;;;;7.22;4.80;;;;;;;;;;4973971;28;20093;-54
2022/06/25 18:24:57;;;;;;;7.15;5.20;;;;;;;;;;4976137;28;20133;-57
2022/06/25 18:27:24;;;;;;;;;;;;;;;;;;4974323;28;20058;-53
2022/06/25 18:29:51;;;;;;;12.15;5.20;;;;;;;;;;4975324;28;19925;-53
2022/06/25 18:32:18;;;;;;;12.07;5.20;;;;;;;;;;4976194;28;20042;-53
2022/06/25 18:34:46;;;;;;;9.85;4.63;;;;;;;;;;4974546;28;20491;-52
2022/06/25 18:37:13;;;;;;;12.90;4.95;;;;;;;;;;4973549;28;20050;-51
2022/06/25 18:39:40;;;;;;;6.45;4.65;;;;;;;;;;4978443;28;20050;-53
2022/06/25 18:42:07;;;;;;;;;;;;;;;;;;4977087;28;20062;-54
2022/06/25 18:44:35;;;;;;;7.47;4.55;;;;;;;;;;4976333;28;19930;-54
2022/06/25 18:47:02;;;;;;;8.43;5.57;;;;;;;;;;5006952;28;20053;-54
2022/06/25 18:49:29;;;;;;;;;;;;;;;;;;5018061;28;20053;-51
2022/06/25 18:51:57;;;;;;;9.35;5.63;;;;;;;;;;5017121;28;20391;-53
2022/06/25 18:54:24;;;;;;;12.60;5.07;;;;;;;;;;5017584;28;20103;-53
2022/06/25 18:56:51;;;;;;;9.35;5.97;;;;;;;;;;5010242;28;20104;-50
2022/06/25 18:59:18;;;;;;;9.25;5.18;;;;;;;;;;5014051;28;20524;-52
2022/06/25 19:01:51;;;;;;;16.73;5.75;;;;;;;;;;5013444;28;20466;-54
2022/06/25 19:04:18;;;;;;;5.95;5.13;;;;;;;;;;5015239;28;20060;-50
2022/06/25 19:06:46;;;;;;;10.48;5.25;;;;;;;;;;5013922;28;20072;-52
2022/06/25 19:09:13;;;;;;;8.00;5.28;;;;;;;;;;5014831;28;20136;-53
2022/06/25 19:11:41;;;;;;;13.43;5.40;;;;;;;;;;5013241;28;20136;-50
2022/06/25 19:14:08;;;;;;;9.88;5.13;;;;;;;;;;5010884;28;21291;-53
2022/06/25 19:16:36;;;;;;;8.50;5.05;;;;;;;;;;5011554;28;20072;-52
2022/06/25 19:19:03;;;;;;;12.10;5.35;;;;;;;;;;5013760;28;20444;-53
2022/06/25 19:21:32;;;;;;;7.57;5.70;;;;;;;;;;5011839;28;20187;-50
2022/06/25 19:24:00;;;;;;;8.27;5.32;;;;;;;;;;5010209;28;20053;-52
2022/06/25 19:26:28;;;;;;;;;;;;;;;;;;5012841;28;20135;-53
2022/06/25 19:28:55;;;;;;;9.13;4.80;;;;;;;;;;5012841;28;19967;-51
2022/06/25 19:31:22;;;;;;;8.23;5.43;;;;;;;;;;5013042;28;20038;-51
2022/06/25 19:33:50;;;;;;;13.50;6.15;;;;;;;;;;5013614;28;20072;-53
2022/06/25 19:36:19;;;;;;;;;;;;;;;;;;5011562;28;20136;-53
2022/06/25 19:38:46;;;;;;;7.80;5.80;;;;;;;;;;5012202;28;19956;-49
2022/06/25 19:41:14;;;;;;;6.50;5.53;;;;;;;;;;5011665;28;20570;-52
2022/06/25 19:43:41;;;;;;;;;;;;;;;;;;5014533;28;20099;-52
2022/06/25 19:46:08;;;;;;;8.95;5.50;;;;;;;;;;5011934;28;19926;-51
2022/06/25 19:48:35;;;;;;;9.07;5.53;;;;;;;;;;5015413;28;20092;-48
2022/06/25 19:51:03;;;;;;;7.53;5.50;;;;;;;;;;5013289;28;20077;-51
2022/06/25 19:53:30;;;;;;;11.02;5.40;;;;;;;;;;5013132;28;20054;-51
2022/06/25 19:55:57;;;;;;;;;;;;;;;;;;5015429;28;20144;-52
2022/06/25 19:58:25;;;;;;;12.20;6.28;;;;;;;;;;5014835;28;19971;-50
2022/06/25 20:00:52;;;;;;;;;;;;;;;;;;5013213;28;20148;-50
2022/06/25 20:03:19;;;;;;;12.77;6.30;;;;;;;;;;5010440;28;19925;-50
2022/06/25 20:05:47;;;;;;;10.25;5.53;;;;;;;;;;5012781;28;20076;-51
2022/06/25 20:08:14;;;;;;;10.50;6.05;;;;;;;;;;5013622;28;20159;-50
2022/06/25 20:10:42;;;;;;;;;;;;;;;;;;5011418;28;20139;-51
2022/06/25 20:13:10;;;;;;;10.03;5.83;;;;;;;;;;5014951;28;19988;-50
2022/06/25 20:15:39;;;;;;;10.70;6.10;;;;;;;;;;5011358;28;20072;-48
2022/06/25 20:18:06;;;;;;;6.90;6.18;;;;;;;;;;5013553;28;20073;-50
2022/06/25 20:20:34;;;;;;;10.82;5.97;;;;;;;;;;5015933;28;20165;-49
2022/06/25 20:23:01;;;;;;;10.32;5.60;;;;;;;;;;5016281;28;20441;-52
2022/06/25 20:25:29;;;;;;;10.75;6.35;;;;;;;;;;5016127;28;20153;-51
2022/06/25 20:27:56;;;;;;;10.07;6.40;;;;;;;;;;5017323;28;20084;-52
2022/06/25 20:30:25;;;;;;;8.20;6.57;;;;;;;;;;5014750;28;20624;-50
2022/06/25 20:32:52;;;;;;;9.57;6.18;;;;;;;;;;5014529;28;20129;-49
2022/06/25 20:35:20;;;;;;;9.48;6.55;;;;;;;;;;5019355;28;20147;-51
2022/06/25 20:37:47;;;;;;;10.95;6.32;;;;;;;;;;5015886;28;20103;-50
2022/06/25 20:40:16;;;;;;;7.63;6.72;;;;;;;;;;5016083;28;20077;-49
2022/06/25 20:42:43;;;;;;;9.35;5.97;;;;;;;;;;5015146;28;20088;-47
2022/06/25 20:45:11;;;;;;;12.48;6.07;;;;;;;;;;5015340;28;20563;-51
2022/06/25 20:47:38;;;;;;;10.02;6.47;;;;;;;;;;5016394;28;20557;-50
2022/06/25 20:50:06;;;;;;;;;;;;;;;;;;5020171;28;20571;-50
2022/06/25 20:52:33;;;;;;;10.00;6.10;;;;;;;;;;5019005;28;19929;-50
2022/06/25 20:55:00;;;;;;;11.48;7.03;;;;;;;;;;5016935;28;20082;-51
2022/06/25 20:57:27;;;;;;;10.18;6.28;;;;;;;;;;5013779;28;20077;-50
2022/06/25 20:59:56;;;;;;;9.88;6.28;;;;;;;;;;5019306;28;20115;-50
2022/06/25 21:02:24;;;;;;;10.52;6.55;;;;;;;;;;5016101;28;20065;-51
2022/06/25 21:10:24;;;;;;;8.55;7.20;;;;;;;;;;5015763;28;20080;-51
2022/06/25 21:12:51;;;;;;;8.88;6.47;;;;;;;;;;5018874;28;20389;-50
2022/06/25 21:15:18;;;;;;;12.85;7.38;;;;;;;;;;5017732;28;20437;-48
2022/06/25 21:17:46;;;;;;;9.35;6.68;;;;;;;;;;5016918;28;20515;-50
2022/06/25 21:20:13;;;;;;;12.02;6.53;;;;;;;;;;5017899;28;20623;-54
2022/06/25 21:22:40;;;;;;;;;;;;;;;;;;5016910;28;20049;-49
2022/06/25 21:25:08;;;;;;;10.00;7.28;;;;;;;;;;5014604;28;19968;-51
2022/06/25 21:27:35;;;;;;;;;;;;;;;;;;5018438;28;20085;-51
2022/06/25 21:30:03;;;;;;;16.75;7.72;;;;;;;;;;5016594;28;19947;-50
2022/06/25 21:32:30;;;;;;;7.43;6.70;;;;;;;;;;5014085;28;20045;-52
2022/06/25 21:34:58;;;;;;;13.50;7.60;;;;;;;;;;5016091;28;20054;-48
2022/06/25 21:37:25;;;;;;;15.85;7.10;;;;;;;;;;5016483;28;20517;-50
2022/06/25 21:39:52;;;;;;;10.55;7.30;;;;;;;;;;5016194;28;20122;-50
2022/06/25 21:42:19;;;;;;;11.43;7.18;;;;;;;;;;5018712;28;20085;-51
2022/06/25 21:44:46;;;;;;;13.90;7.38;;;;;;;;;;5016985;28;20077;-48
2022/06/25 21:47:14;;;;;;;10.30;7.75;;;;;;;;;;5023457;28;20083;-50
2022/06/25 21:49:41;;;;;;;13.32;7.68;;;;;;;;;;5018292;28;20077;-49
2022/06/25 21:52:09;;;;;;;11.88;7.35;;;;;;;;;;5018802;28;20102;-48
2022/06/25 21:54:36;;;;;;;;;;;;;;;;;;5018350;28;20104;-46
2022/06/25 21:57:03;;;;;;;9.88;7.32;;;;;;;;;;5019246;28;19922;-47
2022/06/25 21:59:30;;;;;;;12.20;7.10;;;;;;;;;;5019845;28;20045;-51
2022/06/25 22:01:58;;;;;;;13.82;7.88;;;;;;;;;;5020231;28;20152;-52
2022/06/25 22:04:25;;;;;;;10.98;7.22;;;;;;;;;;5020344;28;20078;-53
2022/06/25 22:06:52;;;;;;;9.88;7.20;;;;;;;;;;5018987;28;20112;-49
2022/06/25 22:09:20;;;;;;;12.15;7.45;;;;;;;;;;5023277;28;20050;-49
2022/06/25 22:11:47;;;;;;;10.10;7.15;;;;;;;;;;5015966;28;20466;-53
2022/06/25 22:14:14;;;;;;;12.68;7.57;;;;;;;;;;5015943;28;20471;-48
2022/06/25 22:16:41;;;;;;;;;;;;;;;;;;5019538;28;20604;-50
2022/06/25 22:19:09;;;;;;;10.63;7.47;;;;;;;;;;5021766;28;19925;-49
2022/06/25 22:21:36;;;;;;;8.60;7.05;;;;;;;;;;5017447;28;20450;-51
2022/06/25 22:24:03;;;;;;;;;;;;;;;;;;5016831;28;20065;-49
2022/06/25 22:26:31;;;;;;;11.52;7.60;;;;;;;;;;5020192;28;19921;-50
2022/06/25 22:28:58;;;;;;;10.75;7.28;;;;;;;;;;5019968;28;20045;-49
2022/06/25 22:31:26;;;;;;;12.63;7.53;;;;;;;;;;5016776;28;20193;-48
2022/06/25 22:33:53;;;;;;;10.43;7.20;;;;;;;;;;5013577;28;20128;-51
2022/06/25 22:36:20;;;;;;;9.60;7.30;;;;;;;;;;5019503;28;20049;-54
2022/06/25 22:38:47;;;;;;;12.10;7.72;;;;;;;;;;5017580;28;20133;-51
2022/06/25 22:41:15;;;;;;;10.13;7.57;;;;;;;;;;5015572;28;20092;-50
2022/06/25 22:43:42;;;;;;;10.90;7.40;;;;;;;;;;5017027;28;20489;-53
2022/06/25 22:46:10;;;;;;;8.90;7.30;;;;;;;;;;5015135;28;20743;-50
2022/06/25 22:48:38;;;;;;;10.77;7.65;;;;;;;;;;5016557;28;20045;-49
2022/06/25 22:51:05;;;;;;;11.48;7.50;;;;;;;;;;5015442;28;20107;-50
2022/06/25 22:53:38;;;;;;;13.88;7.70;;;;;;;;;;5016898;28;20508;-49
2022/06/25 22:56:05;;;;;;;10.73;7.72;;;;;;;;;;5012906;28;20413;-49
2022/06/25 22:58:33;;;;;;;10.45;7.30;;;;;;;;;;5015782;28;20088;-51
2022/06/25 23:01:00;;;;;;;;;;;;;;;;;;5014305;28;20398;-49
2022/06/25 23:03:27;;;;;;;10.65;7.78;;;;;;;;;;5015033;28;20368;-51
2022/06/25 23:05:55;;;;;;;;;;;;;;;;;;5014792;28;20107;-53
2022/06/25 23:08:22;;;;;;;10.32;7.57;;;;;;;;;;5018371;28;20835;-51
2022/06/25 23:10:50;;;;;;;12.18;8.88;;;;;;;;;;5019724;28;20137;-52
2022/06/25 23:13:17;;;;;;;9.95;8.10;;;;;;;;;;5017992;28;20159;-53
2022/06/25 23:15:45;;;;;;;10.85;8.82;;;;;;;;;;5016605;28;20555;-51
2022/06/25 23:18:12;;;;;;;;;;;;;;;;;;5017374;28;20080;-54
2022/06/25 23:20:39;;;;;;;12.05;8.55;;;;;;;;;;5015017;28;20006;-47
2022/06/25 23:23:07;;;;;;;10.15;7.80;;;;;;;;;;5015157;28;20139;-54
2022/06/25 23:25:34;;;;;;;12.10;8.10;;;;;;;;;;5014730;28;20164;-50
2022/06/25 23:28:01;;;;;;;11.18;8.48;;;;;;;;;;5017355;28;20077;-54
2022/06/25 23:30:29;;;;;;;16.77;8.90;;;;;;;;;;5017320;28;20119;-48
2022/06/25 23:32:56;;;;;;;12.68;8.98;;;;;;;;;;5015684;28;20103;-48
2022/06/25 23:35:23;;;;;;;10.57;8.45;;;;;;;;;;5015867;28;20100;-48
2022/06/25 23:37:51;;;;;;;10.07;8.50;;;;;;;;;;5014692;28;20069;-49
2022/06/25 23:40:18;;;;;;;9.13;7.97;;;;;;;;;;5014287;28;20135;-50
2022/06/25 23:42:45;;;;;;;10.98;8.23;;;;;;;;;;5015267;28;20111;-48
2022/06/25 23:45:12;;;;;;;11.45;7.43;;;;;;;;;;5015003;28;20107;-47
2022/06/25 23:47:40;;;;;;;9.48;7.68;;;;;;;;;;5014493;28;20041;-53
2022/06/25 23:50:07;;;;;;;9.35;8.30;;;;;;;;;;5015197;28;20073;-48
2022/06/25 23:52:35;;;;;;;9.63;7.25;;;;;;;;;;5015754;28;20099;-51
2022/06/25 23:55:02;;;;;;;11.35;7.90;;;;;;;;;;5013173;28;20544;-51
2022/06/25 23:57:29;;;;;;;9.00;6.90;;;;;;;;;;5017688;28;20188;-50
2022/06/25 23:59:57;;;;;;;16.33;7.18;;;;;;;;;;5015980;28;20065;-48
